^^
Grace C. Lehan Memorial Weather Station Historical Data
Daily Summary for March 16, 2021 Units:  Metric    English   Both
Daily Weekly Monthly Yearly
  High: Low: Average:
Temperature: 9.8 °C 0.8 °C 5.7 °C
Dew Point: 0.7 °C -1.8 °C -0.6 °C
Humidity: 87% 50% 65%
Wind Speed: 17.7km/h 0km/h 2.7km/h
Wind Gust: 32.2km/h - -
Wind- - WNW
Pressure: 1023.2 hPa 1012.1 hPa -
Precipitation: 0 mm    
 
 
Tabular Data for March 16, 2021
Time Temperature Dew Point Pressure Wind Wind Speed Wind Gust Humidity Rainfall Rate (Hourly) solar
00:04 3.5 °C 0.1 °C 1012.1 hPa WSW 0.5 km/h 4.8 km/h 78% 0 mm 0 W/m2
00:09 3.5 °C 0.1 °C 1012.4 hPa WSW 0.2 km/h 1.6 km/h 78.4% 0 mm 0 W/m2
00:14 3.5 °C 0.2 °C 1012.4 hPa WSW 0.6 km/h 11.3 km/h 79% 0 mm 0 W/m2
00:19 3.5 °C 0.2 °C 1012.4 hPa Calm   11.3 km/h 79% 0 mm 0 W/m2
00:24 3.6 °C 0.2 °C 1012.4 hPa Calm   11.3 km/h 79% 0 mm 0 W/m2
00:29 3.6 °C 0.3 °C 1012.4 hPa Calm   11.3 km/h 79% 0 mm 0 W/m2
00:34 3.6 °C 0.3 °C 1012.4 hPa Calm   11.3 km/h 79% 0 mm 0 W/m2
00:39 3.6 °C 0.3 °C 1012.8 hPa Calm     79% 0 mm 0 W/m2
00:44 3.6 °C 0.3 °C 1012.8 hPa Calm     79% 0 mm 0 W/m2
00:49 3.6 °C 0.3 °C 1012.8 hPa Calm     79% 0 mm 0 W/m2
00:54 3.6 °C 0.3 °C 1012.8 hPa Calm     79% 0 mm 0 W/m2
00:59 3.6 °C 0.3 °C 1012.8 hPa Calm     79% 0 mm 0 W/m2
01:04 3.7 °C 0.4 °C 1012.8 hPa WSW 0.2 km/h 3.2 km/h 79.6% 0 mm 0 W/m2
01:09 3.7 °C 0.6 °C 1013.1 hPa WSW 1.1 km/h 4.8 km/h 80% 0 mm 0 W/m2
01:14 3.7 °C 0.4 °C 1013.1 hPa WSW 0.8 km/h 14.5 km/h 79.4% 0 mm 0 W/m2
01:19 3.7 °C 0.4 °C 1013.1 hPa WSW 0.6 km/h 14.5 km/h 79% 0 mm 0 W/m2
01:24 3.8 °C 0.4 °C 1013.1 hPa WSW 0.2 km/h 14.5 km/h 78.8% 0 mm 0 W/m2
01:29 3.8 °C 0.6 °C 1013.1 hPa Calm   14.5 km/h 79% 0 mm 0 W/m2
01:34 3.8 °C 0.6 °C 1013.1 hPa Calm   14.5 km/h 79% 0 mm 0 W/m2
01:39 3.8 °C 0.6 °C 1013.1 hPa Calm   1.6 km/h 79% 0 mm 0 W/m2
01:44 3.9 °C 0.6 °C 1013.4 hPa Calm   1.6 km/h 79% 0 mm 0 W/m2
01:49 3.9 °C 0.6 °C 1013.4 hPa Calm   1.6 km/h 79% 0 mm 0 W/m2
01:54 3.8 °C 0.6 °C 1013.4 hPa Calm   1.6 km/h 79.2% 0 mm 0 W/m2
01:59 3.8 °C 0.7 °C 1013.4 hPa Calm   1.6 km/h 80% 0 mm 0 W/m2
02:04 3.8 °C 0.7 °C 1013.8 hPa Calm   1.6 km/h 80% 0 mm 0 W/m2
02:09 3.8 °C 0.7 °C 1013.4 hPa Calm     80% 0 mm 0 W/m2
02:11 3.8 °C 0.7 °C 1013.4 hPa Calm     80% 0 mm 0 W/m2
02:30 3.7 °C 0.7 °C 1013.4 hPa Calm   1.6 km/h 81% 0 mm 0 W/m2
03:00 3.5 °C 0.4 °C 1013.4 hPa Calm   6.4 km/h 80% 0 mm 0 W/m2
03:30 3.7 °C -0.9 °C 1013.8 hPa WNW 4.8 km/h 27.4 km/h 72% 0 mm 0 W/m2
04:04 3.8 °C -1.3 °C 1014.1 hPa WNW 4.5 km/h 27.4 km/h 69.3% 0 mm 0 W/m2
04:09 3.8 °C -1.6 °C 1014.4 hPa West 4.7 km/h 22.5 km/h 68% 0 mm 0 W/m2
04:14 3.9 °C -1.6 °C 1014.4 hPa WNW 7.9 km/h 22.5 km/h 67.2% 0 mm 0 W/m2
04:19 3.9 °C -1.6 °C 1014.4 hPa WNW 4.5 km/h 22.5 km/h 67% 0 mm 0 W/m2
04:24 3.9 °C -1.6 °C 1014.8 hPa West 1.9 km/h 22.5 km/h 67% 0 mm 0 W/m2
04:29 3.9 °C -1.7 °C 1014.8 hPa WNW 3.9 km/h 22.5 km/h 67% 0 mm 0 W/m2
04:34 3.8 °C -1.7 °C 1014.8 hPa NW 0.3 km/h 22.5 km/h 67% 0 mm 0 W/m2
04:39 3.8 °C -1.7 °C 1014.8 hPa WNW 1 km/h 6.4 km/h 67.6% 0 mm 0 W/m2
04:44 3.7 °C -1.7 °C 1015.1 hPa WNW 1 km/h 8 km/h 68% 0 mm 0 W/m2
04:49 3.6 °C -1.8 °C 1015.1 hPa WNW 2.3 km/h 9.7 km/h 68% 0 mm 0 W/m2
04:54 3.5 °C -1.7 °C 1015.1 hPa West 2.4 km/h 14.5 km/h 69% 0 mm 0 W/m2
04:59 3.4 °C -1.7 °C 1015.1 hPa West 2.3 km/h 14.5 km/h 69% 0 mm 0 W/m2
05:04 3.4 °C -1.6 °C 1015.1 hPa West 0.2 km/h 14.5 km/h 69.8% 0 mm 0 W/m2
05:09 3.3 °C -1.7 °C 1015.1 hPa West 0.3 km/h 4.8 km/h 69.6% 0 mm 0 W/m2
05:14 3.3 °C -1.7 °C 1015.5 hPa WNW 0.8 km/h 6.4 km/h 70% 0 mm 0 W/m2
05:19 3.2 °C -1.7 °C 1015.5 hPa Calm   6.4 km/h 70% 0 mm 0 W/m2
05:24 3.1 °C -1.7 °C 1015.5 hPa NW 3.4 km/h 19.3 km/h 70.8% 0 mm 0 W/m2
05:29 3.1 °C -1.6 °C 1015.5 hPa WNW 3.7 km/h 19.3 km/h 71% 0 mm 0 W/m2
05:34 3.1 °C -1.6 °C 1015.8 hPa WNW 5.6 km/h 19.3 km/h 71% 0 mm 0 W/m2
05:39 3.2 °C -1.6 °C 1015.8 hPa WNW 8.9 km/h 25.7 km/h 71% 0 mm 0 W/m2
05:44 3.2 °C -1.6 °C 1015.8 hPa WNW 4.7 km/h 25.7 km/h 70.4% 0 mm 0 W/m2
05:49 3.3 °C -1.6 °C 1015.8 hPa WNW 7.7 km/h 25.7 km/h 70.2% 0 mm 0 W/m2
05:54 3.3 °C -1.6 °C 1015.8 hPa WNW 3.5 km/h 25.7 km/h 70% 0 mm 0 W/m2
05:59 3.3 °C -1.6 °C 1015.8 hPa WNW 3.5 km/h 25.7 km/h 70% 0 mm 0 W/m2
06:04 3.3 °C -1.6 °C 1015.8 hPa WNW 4.5 km/h 25.7 km/h 70% 0 mm 0 W/m2
06:06 3.3 °C -1.7 °C 1015.8 hPa WNW 1.9 km/h 20.9 km/h 70% 0 mm 0 W/m2
06:30 3 °C -1.7 °C 1015.8 hPa WNW 1.6 km/h 20.9 km/h 71% 0 mm 0 W/m2
07:00 2.7 °C -1.6 °C 1016.1 hPa West 1.6 km/h 12.9 km/h 73% 0 mm 5 W/m2
07:30 3.2 °C -1.3 °C 1016.8 hPa WNW 3.2 km/h 19.3 km/h 72% 0 mm 23 W/m2
08:04 4.3 °C -0.7 °C 1017.2 hPa WSW 3.2 km/h 19.3 km/h 70.2% 0 mm 186 W/m2
08:09 4.6 °C -0.4 °C 1017.2 hPa WSW 1.8 km/h 11.3 km/h 69.8% 0 mm 202 W/m2
08:14 5.1 °C 0 °C 1017.2 hPa West 3.4 km/h 17.7 km/h 69.7% 0 mm 248 W/m2
08:19 5.6 °C 0 °C 1017.2 hPa West 2.7 km/h 17.7 km/h 67.3% 0 mm 269 W/m2
08:24 6 °C 0.2 °C 1017.5 hPa West 1.8 km/h 17.7 km/h 66.2% 0 mm 281 W/m2
08:29 6.4 °C 0.3 °C 1017.2 hPa WNW 3.9 km/h 19.3 km/h 65% 0 mm 290 W/m2
08:34 6.6 °C 0.2 °C 1017.5 hPa West 9 km/h 24.1 km/h 63.3% 0 mm 301 W/m2
08:39 6.7 °C 0 °C 1017.5 hPa WNW 6.9 km/h 24.1 km/h 62.3% 0 mm 309 W/m2
08:44 6.8 °C 0.2 °C 1017.5 hPa West 9.3 km/h 29 km/h 62.8% 0 mm 320 W/m2
08:49 6.8 °C 0.1 °C 1017.5 hPa WNW 7.4 km/h 29 km/h 62.2% 0 mm 330 W/m2
08:54 6.8 °C 0.1 °C 1017.5 hPa WNW 9.5 km/h 29 km/h 61.8% 0 mm 334 W/m2
08:59 6.8 °C -0.2 °C 1017.5 hPa WNW 7.6 km/h 29 km/h 61% 0 mm 341 W/m2
09:04 6.7 °C -0.3 °C 1017.5 hPa West 12.4 km/h 29 km/h 61% 0 mm 264 W/m2
09:09 6.4 °C -0.4 °C 1017.5 hPa WNW 8.2 km/h 29 km/h 61.6% 0 mm 70 W/m2
09:14 6.3 °C -0.3 °C 1017.5 hPa West 5.5 km/h 29 km/h 62.5% 0 mm 116 W/m2
09:19 6.2 °C -0.3 °C 1017.5 hPa WNW 5.6 km/h 29 km/h 63% 0 mm 276 W/m2
09:24 6.2 °C -0.2 °C 1017.5 hPa West 7.2 km/h 29 km/h 63.3% 0 mm 295 W/m2
09:29 6.3 °C -0.3 °C 1017.8 hPa WNW 11.3 km/h 29 km/h 62.6% 0 mm 199 W/m2
09:34 6.3 °C -0.2 °C 1017.8 hPa WNW 8.2 km/h 29 km/h 63% 0 mm 127 W/m2
09:39 6.3 °C -0.2 °C 1017.5 hPa West 3.1 km/h 22.5 km/h 63% 0 mm 163 W/m2
09:44 6.4 °C -0.1 °C 1017.5 hPa West 5.8 km/h 22.5 km/h 62.8% 0 mm 244 W/m2
09:49 6.6 °C -0.1 °C 1017.5 hPa WNW 5 km/h 22.5 km/h 62.5% 0 mm 341 W/m2
09:54 6.8 °C 0 °C 1017.5 hPa NW 8.9 km/h 25.7 km/h 61.8% 0 mm 336 W/m2
09:59 7 °C -0.1 °C 1017.8 hPa WNW 11.6 km/h 25.7 km/h 60.5% 0 mm 350 W/m2
10:04 7.2 °C -0.5 °C 1017.8 hPa WNW 17.7 km/h 32.2 km/h 58.3% 0 mm 478 W/m2
10:09 7.3 °C -0.4 °C 1017.8 hPa WNW 11.9 km/h 32.2 km/h 58% 0 mm 476 W/m2
10:14 7.6 °C -0.3 °C 1017.8 hPa WNW 11.3 km/h 32.2 km/h 57.5% 0 mm 454 W/m2
10:19 7.8 °C 0 °C 1017.8 hPa WNW 6.3 km/h 32.2 km/h 57.7% 0 mm 499 W/m2
10:24 8.2 °C 0.1 °C 1017.8 hPa WNW 9 km/h 32.2 km/h 56.8% 0 mm 506 W/m2
10:29 8.5 °C 0.3 °C 1017.8 hPa WNW 5.5 km/h 32.2 km/h 56.6% 0 mm 512 W/m2
10:34 8.8 °C 0.3 °C 1017.8 hPa WNW 5.1 km/h 32.2 km/h 55% 0 mm 515 W/m2
10:39 9 °C 0.4 °C 1017.5 hPa WNW 9.2 km/h 20.9 km/h 54.7% 0 mm 441 W/m2
10:44 9 °C -0.1 °C 1017.5 hPa WNW 9.3 km/h 20.9 km/h 53.1% 0 mm 216 W/m2
10:49 8.8 °C -0.1 °C 1017.5 hPa NW 6.1 km/h 20.9 km/h 53.6% 0 mm 158 W/m2
10:54 8.8 °C 0 °C 1017.5 hPa NW 3.5 km/h 20.9 km/h 54.1% 0 mm 151 W/m2
10:59 8.8 °C 0 °C 1017.5 hPa WNW 4.7 km/h 20.9 km/h 54.1% 0 mm 176 W/m2
11:04 8.8 °C 0.3 °C 1017.5 hPa NW 1.9 km/h 20.9 km/h 54.8% 0 mm 411 W/m2
11:09 9 °C 0.2 °C 1017.5 hPa WNW 10.5 km/h 25.7 km/h 54.2% 0 mm 446 W/m2
11:14 8.9 °C -0.3 °C 1017.5 hPa West 7.1 km/h 25.7 km/h 52.3% 0 mm 221 W/m2
11:19 8.9 °C -0.4 °C 1017.5 hPa West 8.4 km/h 25.7 km/h 52.2% 0 mm 322 W/m2
11:24 8.8 °C -0.5 °C 1017.5 hPa West 8.7 km/h 25.7 km/h 52% 0 mm 322 W/m2
11:29 8.8 °C -0.5 °C 1017.5 hPa West 10.5 km/h 25.7 km/h 52% 0 mm 213 W/m2
11:34 8.8 °C -0.3 °C 1017.2 hPa WNW 6.4 km/h 25.7 km/h 52.6% 0 mm 274 W/m2
11:39 8.9 °C 0 °C 1017.5 hPa WNW 5.8 km/h 20.9 km/h 53.7% 0 mm 171 W/m2
11:44 9.1 °C 0.1 °C 1017.5 hPa WNW 8.4 km/h 20.9 km/h 53.2% 0 mm 181 W/m2
11:49 9 °C -0.6 °C 1017.5 hPa WNW 8.7 km/h 27.4 km/h 50.9% 0 mm 181 W/m2
11:54 8.9 °C -0.3 °C 1017.5 hPa NW 5 km/h 27.4 km/h 52.4% 0 mm 202 W/m2
11:59 8.9 °C -0.4 °C 1017.2 hPa NW 7.7 km/h 27.4 km/h 52.1% 0 mm 202 W/m2
12:09 9.2 °C 0.3 °C 1017.2 hPa NW 3.4 km/h 17.7 km/h 53.5% 0 mm 98 W/m2
12:14 9.4 °C 0 °C 1017.2 hPa WNW 5.5 km/h 17.7 km/h 51.8% 0 mm 294 W/m2
12:19 9.6 °C 0.2 °C 1017.2 hPa NW 4.5 km/h 17.7 km/h 52.1% 0 mm 441 W/m2
12:24 9.7 °C 0.1 °C 1017.2 hPa NW 5.6 km/h 19.3 km/h 51% 0 mm 441 W/m2
12:29 9.8 °C 0.2 °C 1017.2 hPa NW 7.1 km/h 19.3 km/h 51.2% 0 mm 350 W/m2
12:34 9.8 °C 0 °C 1017.2 hPa WNW 3.9 km/h 19.3 km/h 50.3% 0 mm 218 W/m2
12:39 9.8 °C 0.1 °C 1017.2 hPa WNW 3.5 km/h 16.1 km/h 50.7% 0 mm 218 W/m2
12:44 9.7 °C 0 °C 1017.2 hPa WNW 6.6 km/h 17.7 km/h 50.7% 0 mm 155 W/m2
12:49 9.5 °C -0.3 °C 1017.2 hPa WNW 7.7 km/h 20.9 km/h 50.5% 0 mm 190 W/m2
12:54 9.3 °C -0.3 °C 1017.2 hPa WNW 3.2 km/h 20.9 km/h 51% 0 mm 250 W/m2
12:59 9.3 °C 0.1 °C 1017.2 hPa NW 3.7 km/h 20.9 km/h 52.5% 0 mm 209 W/m2
13:04 9.4 °C 0.1 °C 1017.2 hPa NW 3.7 km/h 20.9 km/h 51.8% 0 mm 155 W/m2
13:09 9.5 °C -0.3 °C 1017.2 hPa NW 7.4 km/h 19.3 km/h 50.4% 0 mm 199 W/m2
13:14 9.4 °C -0.4 °C 1017.2 hPa WNW 6 km/h 19.3 km/h 50% 0 mm 141 W/m2
13:19 9.3 °C -0.3 °C 1017.2 hPa NW 5.8 km/h 19.3 km/h 51% 0 mm 313 W/m2
13:24 9.3 °C -0.3 °C 1017.2 hPa WNW 6.1 km/h 19.3 km/h 51% 0 mm 352 W/m2
13:29 9.4 °C -0.1 °C 1017.2 hPa WNW 4.5 km/h 19.3 km/h 51.6% 0 mm 352 W/m2
13:34 9.5 °C -0.1 °C 1017.2 hPa WNW 7.4 km/h 22.5 km/h 51.1% 0 mm 158 W/m2
13:39 9.6 °C 0 °C 1017.2 hPa WNW 4.2 km/h 22.5 km/h 51.2% 0 mm 160 W/m2
13:44 9.6 °C -0.1 °C 1017.2 hPa WNW 7.4 km/h 22.5 km/h 51% 0 mm 176 W/m2
13:49 9.4 °C -0.1 °C 1017.2 hPa NW 6.3 km/h 22.5 km/h 51.2% 0 mm 200 W/m2
13:54 9.3 °C 0 °C 1017.2 hPa NW 6 km/h 22.5 km/h 52% 0 mm 127 W/m2
13:59 9.2 °C -0.1 °C 1017.2 hPa WNW 4 km/h 22.5 km/h 52% 0 mm 123 W/m2
14:04 9.2 °C -0.1 °C 1017.2 hPa WNW 1.4 km/h 22.5 km/h 52.5% 0 mm 163 W/m2
14:09 9.1 °C 0 °C 1017.2 hPa NW 6.3 km/h 16.1 km/h 52.9% 0 mm 118 W/m2
14:14 9 °C -0.1 °C 1017.2 hPa WNW 5.8 km/h 17.7 km/h 53% 0 mm 111 W/m2
14:19 8.9 °C -0.1 °C 1017.2 hPa WNW 5.1 km/h 17.7 km/h 53.2% 0 mm 72 W/m2
14:24 8.8 °C -0.1 °C 1017.2 hPa WNW 1.4 km/h 17.7 km/h 53.6% 0 mm 51 W/m2
14:29 8.7 °C 0.1 °C 1017.2 hPa West 2.6 km/h 17.7 km/h 54.5% 0 mm 62 W/m2
14:34 8.7 °C -0.1 °C 1017.5 hPa WNW 5.3 km/h 17.7 km/h 54% 0 mm 56 W/m2
14:39 8.6 °C -0.1 °C 1017.5 hPa West 4 km/h 14.5 km/h 54.3% 0 mm 56 W/m2
14:44 8.7 °C 0.1 °C 1017.5 hPa WNW 3.2 km/h 14.5 km/h 55% 0 mm 51 W/m2
14:49 8.7 °C 0.1 °C 1017.5 hPa West 7.7 km/h 22.5 km/h 54.5% 0 mm 35 W/m2
14:54 8.8 °C -0.4 °C 1017.5 hPa West 7.7 km/h 24.1 km/h 52.6% 0 mm 28 W/m2
14:59 8.8 °C -0.6 °C 1017.5 hPa West 8.5 km/h 24.1 km/h 51.8% 0 mm 26 W/m2
15:04 8.7 °C -0.6 °C 1017.5 hPa West 6.9 km/h 24.1 km/h 52.1% 0 mm 25 W/m2
15:09 8.7 °C -0.6 °C 1017.5 hPa WNW 5.1 km/h 20.9 km/h 52.2% 0 mm 25 W/m2
15:14 8.6 °C -0.4 °C 1017.8 hPa WNW 3.2 km/h 20.9 km/h 53% 0 mm 33 W/m2
15:19 8.5 °C -0.4 °C 1017.8 hPa WNW 0.6 km/h 20.9 km/h 53.6% 0 mm 40 W/m2
15:24 8.4 °C -0.5 °C 1017.8 hPa WNW 2.7 km/h 20.9 km/h 53.5% 0 mm 37 W/m2
15:29 8.3 °C -0.6 °C 1017.8 hPa West 2.7 km/h 20.9 km/h 53.5% 0 mm 37 W/m2
15:34 8.3 °C -0.6 °C 1017.8 hPa West 2.3 km/h 20.9 km/h 53.5% 0 mm 33 W/m2
15:39 8.3 °C -0.7 °C 1017.8 hPa West 0.8 km/h 9.7 km/h 53.3% 0 mm 33 W/m2
15:44 8.3 °C -0.5 °C 1018.2 hPa West 0.6 km/h 9.7 km/h 54% 0 mm 32 W/m2
15:49 8.3 °C -0.4 °C 1017.8 hPa West 1.4 km/h 9.7 km/h 54.2% 0 mm 26 W/m2
15:54 8.3 °C -0.5 °C 1018.2 hPa West 1.3 km/h 9.7 km/h 54% 0 mm 25 W/m2
15:59 8.3 °C -0.4 °C 1018.2 hPa Calm   9.7 km/h 54.2% 0 mm 23 W/m2
16:00 8.3 °C -0.2 °C 1017.8 hPa WNW 3.2 km/h 9.7 km/h 55% 0 mm 21 W/m2
16:09 8.3 °C -0.6 °C 1017.8 hPa West 2.7 km/h 16.1 km/h 53.4% 0 mm 12 W/m2
16:14 8.3 °C -0.7 °C 1018.2 hPa West 0.8 km/h 16.1 km/h 53.1% 0 mm 12 W/m2
16:19 8.2 °C -0.7 °C 1018.2 hPa West 1.6 km/h 16.1 km/h 53.6% 0 mm 9 W/m2
16:24 8.1 °C -0.5 °C 1018.2 hPa WSW 0.3 km/h 16.1 km/h 54.5% 0 mm 5 W/m2
16:29 8.1 °C -0.4 °C 1018.2 hPa WSW 0.2 km/h 16.1 km/h 55% 0 mm 0 W/m2
16:34 8 °C -0.5 °C 1018.2 hPa WSW 0.8 km/h 16.1 km/h 55% 0 mm 0 W/m2
16:39 7.9 °C -0.5 °C 1018.5 hPa WSW 0.2 km/h 11.3 km/h 55.2% 0 mm 0 W/m2
16:44 7.8 °C -0.4 °C 1018.5 hPa WSW 0.5 km/h 11.3 km/h 56% 0 mm 0 W/m2
16:49 7.8 °C -0.4 °C 1018.5 hPa WSW 0.3 km/h 11.3 km/h 56% 0 mm 0 W/m2
16:54 7.8 °C -0.4 °C 1018.8 hPa Calm   11.3 km/h 56% 0 mm 0 W/m2
16:59 7.7 °C -0.4 °C 1018.8 hPa Calm   11.3 km/h 56.4% 0 mm 0 W/m2
17:04 7.7 °C -0.6 °C 1018.8 hPa Calm   11.3 km/h 56.1% 0 mm 0 W/m2
17:09 7.6 °C -0.7 °C 1018.8 hPa Calm   1.6 km/h 56% 0 mm 0 W/m2
17:14 7.4 °C -0.7 °C 1019.2 hPa WSW 0.2 km/h 3.2 km/h 56% 0 mm 0 W/m2
17:19 7.3 °C -0.8 °C 1019.2 hPa Calm   3.2 km/h 56% 0 mm 0 W/m2
17:24 7.3 °C -0.8 °C 1019.2 hPa Calm   3.2 km/h 56.6% 0 mm 0 W/m2
17:29 7.2 °C -0.7 °C 1019.2 hPa Calm   3.2 km/h 57.4% 0 mm 0 W/m2
17:34 7.1 °C -0.7 °C 1019.2 hPa Calm   3.2 km/h 58% 0 mm 0 W/m2
17:39 6.9 °C -0.8 °C 1019.5 hPa Calm     58% 0 mm 0 W/m2
17:44 6.8 °C -0.8 °C 1019.5 hPa Calm     58.4% 0 mm 0 W/m2
17:49 6.7 °C -0.8 °C 1019.5 hPa Calm     59% 0 mm 0 W/m2
17:54 6.6 °C -0.6 °C 1019.5 hPa Calm     60% 0 mm 0 W/m2
17:59 6.6 °C -0.4 °C 1019.5 hPa Calm     60.8% 0 mm 0 W/m2
18:04 6.5 °C -0.6 °C 1019.5 hPa Calm     60.6% 0 mm 0 W/m2
18:09 6.4 °C -0.6 °C 1019.5 hPa Calm     60.8% 0 mm 0 W/m2
18:14 6.4 °C -0.6 °C 1019.5 hPa Calm     61% 0 mm 0 W/m2
18:19 6.3 °C -0.9 °C 1019.9 hPa Calm     59.9% 0 mm 0 W/m2
18:24 6.2 °C -1.1 °C 1019.5 hPa Calm     59.3% 0 mm 0 W/m2
18:29 6.2 °C -1 °C 1019.9 hPa WSW 0.2 km/h 3.2 km/h 60.1% 0 mm 0 W/m2
18:34 6.1 °C -0.9 °C 1019.9 hPa Calm   3.2 km/h 61% 0 mm 0 W/m2
18:39 5.9 °C -1 °C 1019.9 hPa Calm     61% 0 mm 0 W/m2
18:44 5.8 °C -1.1 °C 1019.9 hPa Calm     61% 0 mm 0 W/m2
18:49 5.7 °C -1.2 °C 1019.9 hPa Calm     61% 0 mm 0 W/m2
18:54 5.6 °C -1.2 °C 1020.2 hPa Calm     61.5% 0 mm 0 W/m2
18:59 5.5 °C -1.2 °C 1020.2 hPa WSW 0.2 km/h 3.2 km/h 62% 0 mm 0 W/m2
19:04 5.4 °C -1.2 °C 1020.5 hPa Calm   3.2 km/h 62.4% 0 mm 0 W/m2
19:09 5.3 °C -1.2 °C 1020.5 hPa Calm   1.6 km/h 63% 0 mm 0 W/m2
19:14 5.2 °C -1.3 °C 1020.5 hPa Calm   1.6 km/h 63% 0 mm 0 W/m2
19:19 5.1 °C -1.3 °C 1020.5 hPa Calm   1.6 km/h 63% 0 mm 0 W/m2
19:24 5.1 °C -1.3 °C 1020.9 hPa Calm   1.6 km/h 63.5% 0 mm 0 W/m2
19:29 5 °C -1.3 °C 1020.9 hPa Calm   1.6 km/h 64% 0 mm 0 W/m2
19:34 4.9 °C -1.2 °C 1020.9 hPa Calm   1.6 km/h 64.8% 0 mm 0 W/m2
19:39 4.8 °C -1.2 °C 1021.2 hPa Calm     65.3% 0 mm 0 W/m2
19:44 4.7 °C -1.1 °C 1021.2 hPa Calm     66% 0 mm 0 W/m2
19:49 4.7 °C -1.1 °C 1021.2 hPa WSW 0.3 km/h 3.2 km/h 66% 0 mm 0 W/m2
19:54 4.6 °C -1.1 °C 1021.2 hPa WSW 0.2 km/h 3.2 km/h 66.6% 0 mm 0 W/m2
19:59 4.5 °C -1.2 °C 1021.2 hPa Calm   3.2 km/h 66.3% 0 mm 0 W/m2
20:09 4.3 °C -1.2 °C 1021.2 hPa Calm     67% 0 mm 0 W/m2
20:14 4.3 °C -1.2 °C 1021.6 hPa Calm     67.4% 0 mm 0 W/m2
20:19 4.2 °C -1.3 °C 1021.6 hPa Calm     67.7% 0 mm 0 W/m2
20:24 4.1 °C -1.3 °C 1021.6 hPa Calm     68% 0 mm 0 W/m2
20:29 3.9 °C -1.3 °C 1021.6 hPa Calm     69% 0 mm 0 W/m2
20:34 3.8 °C -1.3 °C 1021.6 hPa Calm     69.6% 0 mm 0 W/m2
20:39 3.7 °C -1.2 °C 1021.6 hPa Calm     70.7% 0 mm 0 W/m2
20:44 3.6 °C -1.2 °C 1021.6 hPa Calm     71% 0 mm 0 W/m2
20:49 3.5 °C -1.2 °C 1021.6 hPa Calm     71.3% 0 mm 0 W/m2
20:54 3.4 °C -1.1 °C 1021.6 hPa Calm     72% 0 mm 0 W/m2
20:59 3.3 °C -1.2 °C 1021.6 hPa Calm     72% 0 mm 0 W/m2
21:04 3.3 °C -1.2 °C 1021.9 hPa Calm     72.4% 0 mm 0 W/m2
21:09 3.2 °C -1.2 °C 1021.9 hPa Calm     73% 0 mm 0 W/m2
21:14 3.1 °C -1.1 °C 1021.9 hPa Calm     74% 0 mm 0 W/m2
21:19 2.9 °C -1.2 °C 1021.9 hPa Calm     74% 0 mm 0 W/m2
21:24 2.8 °C -1.3 °C 1021.9 hPa Calm     74.1% 0 mm 0 W/m2
21:29 2.7 °C -1.3 °C 1022.2 hPa Calm     75% 0 mm 0 W/m2
21:34 2.6 °C -1.3 °C 1022.2 hPa WSW 0.3 km/h 3.2 km/h 75.9% 0 mm 0 W/m2
21:39 2.3 °C -1.3 °C 1022.2 hPa Calm   3.2 km/h 76.9% 0 mm 0 W/m2
21:44 2.2 °C -1.4 °C 1021.9 hPa Calm   3.2 km/h 77% 0 mm 0 W/m2
21:49 2.1 °C -1.5 °C 1021.9 hPa Calm   3.2 km/h 77% 0 mm 0 W/m2
21:54 2 °C -1.6 °C 1021.9 hPa Calm   3.2 km/h 77.1% 0 mm 0 W/m2
21:59 1.9 °C -1.5 °C 1022.2 hPa Calm   3.2 km/h 78% 0 mm 0 W/m2
22:04 1.8 °C -1.6 °C 1022.2 hPa Calm   3.2 km/h 78.1% 0 mm 0 W/m2
22:09 1.8 °C -1.5 °C 1022.2 hPa Calm     79% 0 mm 0 W/m2
22:14 1.7 °C -1.5 °C 1022.2 hPa Calm     79.2% 0 mm 0 W/m2
22:19 1.6 °C -1.4 °C 1022.2 hPa Calm     80% 0 mm 0 W/m2
22:24 1.6 °C -1.5 °C 1022.2 hPa Calm     80.2% 0 mm 0 W/m2
22:29 1.5 °C -1.4 °C 1022.2 hPa Calm     80.8% 0 mm 0 W/m2
22:34 1.4 °C -1.4 °C 1022.2 hPa Calm     81.3% 0 mm 0 W/m2
22:39 1.4 °C -1.3 °C 1022.6 hPa WSW 0.5 km/h 3.2 km/h 82% 0 mm 0 W/m2
22:44 1.3 °C -1.6 °C 1022.6 hPa Calm   3.2 km/h 81.1% 0 mm 0 W/m2
22:49 1.2 °C -1.6 °C 1022.6 hPa Calm   3.2 km/h 81.9% 0 mm 0 W/m2
22:54 1.1 °C -1.6 °C 1022.9 hPa Calm   3.2 km/h 82.3% 0 mm 0 W/m2
22:59 0.9 °C -1.6 °C 1022.9 hPa Calm   3.2 km/h 83% 0 mm 0 W/m2
23:00 0.9 °C -1.6 °C 1022.6 hPa Calm   3.2 km/h 83% 0 mm 0 W/m2
23:09 0.9 °C -1.5 °C 1022.9 hPa Calm     84.1% 0 mm 0 W/m2
23:14 0.9 °C -1.3 °C 1022.9 hPa Calm     85% 0 mm 0 W/m2
23:19 1 °C -1.2 °C 1022.9 hPa Calm     85% 0 mm 0 W/m2
23:24 1.1 °C -1.2 °C 1022.9 hPa Calm     85% 0 mm 0 W/m2
23:29 1.1 °C -1.1 °C 1023.2 hPa Calm     85% 0 mm 0 W/m2
23:34 1.1 °C -1.1 °C 1023.2 hPa Calm     85% 0 mm 0 W/m2
23:39 1 °C -1.2 °C 1023.2 hPa Calm     85% 0 mm 0 W/m2
23:44 0.9 °C -1.3 °C 1023.2 hPa Calm     85.1% 0 mm 0 W/m2
23:49 0.9 °C -1.2 °C 1023.2 hPa Calm     86% 0 mm 0 W/m2
23:54 0.8 °C -1.2 °C 1023.2 hPa Calm     86.4% 0 mm 0 W/m2
23:59 0.8 °C -1.1 °C 1023.2 hPa Calm     87% 0 mm 0 W/m2
Hartford County Weather
Compliments of Weather Underground - 2 mb